Time;durP1;ratioP1;P1;durP2;ratioP2;P2;SDS_P1;SDS_P2;PMS_P1;PMS_P2;Temp;Humidity;BMP_temperature;BMP_pressure;BME280_temperature;BME280_humidity;BME280_pressure;Samples;Min_cycle;Max_cycle;Signal;HPM_P1;HPM_P2
2023/02/03 00:02:44;;;;;;;9.15;5.40;;;;;;;;;;4957818;29;20023;-74
2023/02/03 00:05:30;;;;;;;10.50;5.57;;;;;;;;;;4958336;29;20102;-74
2023/02/03 00:08:17;;;;;;;9.45;5.18;;;;;;;;;;4958974;28;20073;-75
2023/02/03 00:11:03;;;;;;;9.35;5.68;;;;;;;;;;4958436;28;20464;-75
2023/02/03 00:13:49;;;;;;;8.38;4.95;;;;;;;;;;4957324;28;20052;-75
2023/02/03 00:16:34;;;;;;;7.38;5.10;;;;;;;;;;4957499;29;20030;-75
2023/02/03 00:19:20;;;;;;;9.48;5.00;;;;;;;;;;4957201;28;20081;-74
2023/02/03 00:22:05;;;;;;;11.65;5.35;;;;;;;;;;4957621;29;20027;-75
2023/02/03 00:24:51;;;;;;;8.45;5.55;;;;;;;;;;4956309;28;20050;-74
2023/02/03 00:27:37;;;;;;;8.40;4.97;;;;;;;;;;4957438;29;20118;-74
2023/02/03 00:30:22;;;;;;;9.65;5.30;;;;;;;;;;4957239;29;20091;-74
2023/02/03 00:33:08;;;;;;;8.45;5.30;;;;;;;;;;4957091;28;20352;-73
2023/02/03 00:35:53;;;;;;;8.80;5.75;;;;;;;;;;4957187;29;20436;-73
2023/02/03 00:38:39;;;;;;;9.75;5.38;;;;;;;;;;4957356;29;20038;-74
2023/02/03 00:41:27;;;;;;;9.32;5.03;;;;;;;;;;4956799;28;20038;-74
2023/02/03 00:44:13;;;;;;;11.20;5.65;;;;;;;;;;4957856;28;20122;-74
2023/02/03 00:46:59;;;;;;;10.60;5.75;;;;;;;;;;4956589;28;20023;-73
2023/02/03 00:49:44;;;;;;;8.65;5.28;;;;;;;;;;4962474;28;20035;-73
2023/02/03 00:52:30;;;;;;;7.80;5.40;;;;;;;;;;4967417;28;20034;-73
2023/02/03 00:55:15;;;;;;;8.18;5.03;;;;;;;;;;4965976;28;20030;-73
2023/02/03 00:58:01;;;;;;;7.28;5.05;;;;;;;;;;4958462;28;20027;-74
2023/02/03 01:00:47;;;;;;;8.40;4.97;;;;;;;;;;4957891;29;20046;-73
2023/02/03 01:03:32;;;;;;;6.82;4.22;;;;;;;;;;4956225;29;20023;-73
2023/02/03 01:06:19;;;;;;;8.93;4.57;;;;;;;;;;4957857;28;20027;-74
2023/02/03 01:09:05;;;;;;;11.50;4.97;;;;;;;;;;4958508;28;20098;-74
2023/02/03 01:11:50;;;;;;;12.15;4.97;;;;;;;;;;4956391;28;20089;-74
2023/02/03 01:14:36;;;;;;;8.30;4.65;;;;;;;;;;4957160;28;20026;-74
2023/02/03 01:17:21;;;;;;;7.60;4.65;;;;;;;;;;4956894;28;20500;-74
2023/02/03 01:20:07;;;;;;;10.52;5.22;;;;;;;;;;4956707;28;20038;-74
2023/02/03 01:22:53;;;;;;;7.85;4.47;;;;;;;;;;4957818;28;20075;-73
2023/02/03 01:25:38;;;;;;;8.30;4.85;;;;;;;;;;4956903;29;20467;-74
2023/02/03 01:28:24;;;;;;;7.65;4.72;;;;;;;;;;4956265;29;20038;-74
2023/02/03 01:31:21;;;;;;;6.97;4.47;;;;;;;;;;4957232;28;20421;-73
2023/02/03 01:34:10;;;;;;;7.35;4.65;;;;;;;;;;4956630;28;20420;-74
2023/02/03 01:36:55;;;;;;;6.88;4.70;;;;;;;;;;4943494;28;20463;-73
2023/02/03 01:39:41;;;;;;;8.18;5.00;;;;;;;;;;4956693;28;20364;-74
2023/02/03 01:42:27;;;;;;;8.18;4.75;;;;;;;;;;4957727;28;20110;-74
2023/02/03 01:45:13;;;;;;;9.13;4.65;;;;;;;;;;4956127;29;20023;-73
2023/02/03 01:47:59;;;;;;;8.27;4.45;;;;;;;;;;4956943;28;20156;-74
2023/02/03 01:50:44;;;;;;;7.85;4.50;;;;;;;;;;4957262;28;20023;-74
2023/02/03 01:53:31;;;;;;;9.10;4.78;;;;;;;;;;4954852;29;20029;-74
2023/02/03 01:56:16;;;;;;;9.52;5.05;;;;;;;;;;4957220;28;20042;-74
2023/02/03 01:59:02;;;;;;;10.15;4.68;;;;;;;;;;4956553;28;20062;-74
2023/02/03 02:01:49;;;;;;;8.35;5.30;;;;;;;;;;4955986;28;20047;-74
2023/02/03 02:04:55;;;;;;;9.20;4.70;;;;;;;;;;4957602;28;20116;-73
2023/02/03 02:07:42;;;;;;;8.55;4.30;;;;;;;;;;4955891;28;20020;-74
2023/02/03 02:10:28;;;;;;;10.57;5.03;;;;;;;;;;4956129;28;20055;-73
2023/02/03 02:13:15;;;;;;;7.80;4.55;;;;;;;;;;4956129;28;20046;-73
2023/02/03 02:16:07;;;;;;;6.95;4.05;;;;;;;;;;4956269;28;20037;-74
2023/02/03 02:18:52;;;;;;;5.78;4.00;;;;;;;;;;4957688;28;20027;-74
2023/02/03 02:21:50;;;;;;;7.35;4.30;;;;;;;;;;4956204;28;20035;-74
2023/02/03 02:24:39;;;;;;;9.23;4.45;;;;;;;;;;4955336;29;20105;-74
2023/02/03 02:27:24;;;;;;;7.38;4.63;;;;;;;;;;4956304;28;20046;-74
2023/02/03 02:30:29;;;;;;;7.85;4.32;;;;;;;;;;4955311;28;20023;-74
2023/02/03 02:33:17;;;;;;;7.40;4.55;;;;;;;;;;4955539;28;20205;-73
2023/02/03 02:36:11;;;;;;;6.28;3.90;;;;;;;;;;4961569;29;20033;-74
2023/02/03 02:39:09;;;;;;;7.82;4.15;;;;;;;;;;4954675;29;20019;-74
2023/02/03 02:41:58;;;;;;;9.52;4.72;;;;;;;;;;4956454;28;20030;-73
2023/02/03 02:44:50;;;;;;;7.03;4.25;;;;;;;;;;4961130;28;20037;-74
2023/02/03 02:47:36;;;;;;;7.22;4.53;;;;;;;;;;4960642;28;20441;-73
2023/02/03 02:50:23;;;;;;;8.25;4.55;;;;;;;;;;4960281;28;20042;-74
2023/02/03 02:53:10;;;;;;;6.95;4.20;;;;;;;;;;4959657;28;20489;-74
2023/02/03 02:55:57;;;;;;;7.63;4.00;;;;;;;;;;4960539;28;20081;-74
2023/02/03 02:58:46;;;;;;;7.65;4.00;;;;;;;;;;4960361;28;20015;-74
2023/02/03 03:01:31;;;;;;;8.13;4.97;;;;;;;;;;4959426;28;20445;-74
2023/02/03 03:04:20;;;;;;;6.70;4.28;;;;;;;;;;4958241;29;20029;-73
2023/02/03 03:07:12;;;;;;;7.15;4.15;;;;;;;;;;4959808;28;20102;-74
2023/02/03 03:10:01;;;;;;;7.97;4.22;;;;;;;;;;4949802;28;20031;-73
2023/02/03 03:12:49;;;;;;;8.20;3.92;;;;;;;;;;4964739;28;20022;-74
2023/02/03 03:15:34;;;;;;;8.75;4.32;;;;;;;;;;4960128;28;20029;-74
2023/02/03 03:18:24;;;;;;;6.70;4.43;;;;;;;;;;4959390;28;20027;-74
2023/02/03 03:21:13;;;;;;;6.35;4.38;;;;;;;;;;4960009;28;20023;-74
2023/02/03 03:24:00;;;;;;;11.60;4.57;;;;;;;;;;4960605;28;20079;-74
2023/02/03 03:27:00;;;;;;;6.90;4.10;;;;;;;;;;4959406;29;20023;-74
2023/02/03 03:29:49;;;;;;;7.32;4.30;;;;;;;;;;4959342;28;20015;-73
2023/02/03 03:32:34;;;;;;;7.40;4.40;;;;;;;;;;4961151;28;20042;-74
2023/02/03 03:35:21;;;;;;;7.28;4.35;;;;;;;;;;4959694;28;20150;-74
2023/02/03 03:38:15;;;;;;;7.45;4.22;;;;;;;;;;4958882;28;20057;-74
2023/02/03 03:41:03;;;;;;;6.57;3.83;;;;;;;;;;4959614;28;20030;-74
2023/02/03 03:43:51;;;;;;;6.35;3.83;;;;;;;;;;4958565;28;20121;-73
2023/02/03 03:46:49;;;;;;;6.40;4.13;;;;;;;;;;4958493;29;20027;-74
2023/02/03 03:49:34;;;;;;;7.60;4.35;;;;;;;;;;4957150;29;20031;-74
2023/02/03 03:52:26;;;;;;;7.07;4.20;;;;;;;;;;4957911;29;20019;-75
2023/02/03 03:55:13;;;;;;;10.50;4.57;;;;;;;;;;4959334;28;20015;-73
2023/02/03 03:58:08;;;;;;;5.95;3.80;;;;;;;;;;4959138;28;20102;-74
2023/02/03 04:00:56;;;;;;;6.00;3.80;;;;;;;;;;4958112;28;20118;-74
2023/02/03 04:03:47;;;;;;;6.35;3.58;;;;;;;;;;4959671;28;20329;-74
2023/02/03 04:06:32;;;;;;;6.35;3.60;;;;;;;;;;4959158;28;20090;-73
2023/02/03 04:09:18;;;;;;;6.75;3.70;;;;;;;;;;4957491;28;20034;-73
2023/02/03 04:12:05;;;;;;;6.15;4.00;;;;;;;;;;4957914;29;20070;-73
2023/02/03 04:14:50;;;;;;;6.43;3.92;;;;;;;;;;4957429;29;20039;-74
2023/02/03 04:17:36;;;;;;;7.35;4.00;;;;;;;;;;4957808;29;20025;-73
2023/02/03 04:20:24;;;;;;;7.30;4.07;;;;;;;;;;4958056;29;20027;-74
2023/02/03 04:23:10;;;;;;;7.13;4.10;;;;;;;;;;4958994;28;20117;-74
2023/02/03 04:25:55;;;;;;;7.65;4.07;;;;;;;;;;4958172;29;20031;-75
2023/02/03 04:28:42;;;;;;;6.82;4.00;;;;;;;;;;4959222;28;20026;-73
2023/02/03 04:31:28;;;;;;;6.97;4.32;;;;;;;;;;4959632;28;20464;-73
2023/02/03 04:34:13;;;;;;;6.63;4.28;;;;;;;;;;4959824;28;20437;-74
2023/02/03 04:36:59;;;;;;;6.93;3.92;;;;;;;;;;4959640;29;20094;-74
2023/02/03 04:39:44;;;;;;;9.52;4.45;;;;;;;;;;4958147;28;20067;-74
2023/02/03 04:42:30;;;;;;;9.90;4.63;;;;;;;;;;4958206;29;20479;-73
2023/02/03 04:45:15;;;;;;;6.65;4.13;;;;;;;;;;4956846;29;20329;-73
2023/02/03 04:48:03;;;;;;;7.38;3.80;;;;;;;;;;4957692;28;20027;-73
2023/02/03 04:50:49;;;;;;;7.90;4.05;;;;;;;;;;4957763;28;20342;-73
2023/02/03 04:53:34;;;;;;;7.63;4.30;;;;;;;;;;4957665;29;20023;-74
2023/02/03 04:56:20;;;;;;;6.97;4.18;;;;;;;;;;4958178;28;20058;-74
2023/02/03 04:59:06;;;;;;;8.45;4.13;;;;;;;;;;4959153;28;20023;-73
2023/02/03 05:01:51;;;;;;;7.45;4.53;;;;;;;;;;4958202;28;20023;-74
2023/02/03 05:04:37;;;;;;;5.55;3.63;;;;;;;;;;4958196;28;20038;-75
2023/02/03 05:07:23;;;;;;;9.85;4.30;;;;;;;;;;4957796;28;20045;-74
2023/02/03 05:10:08;;;;;;;9.40;4.07;;;;;;;;;;4957031;29;20016;-73
2023/02/03 05:12:54;;;;;;;8.82;4.30;;;;;;;;;;4957907;28;20372;-74
2023/02/03 05:15:39;;;;;;;7.60;4.22;;;;;;;;;;4957470;29;20348;-75
2023/02/03 05:18:25;;;;;;;7.57;4.18;;;;;;;;;;4957297;29;20031;-74
2023/02/03 05:21:11;;;;;;;8.90;4.50;;;;;;;;;;4956536;28;20047;-74
2023/02/03 05:23:56;;;;;;;9.05;3.88;;;;;;;;;;4956590;28;20126;-74
2023/02/03 05:26:42;;;;;;;8.07;3.90;;;;;;;;;;4957232;28;20031;-74
2023/02/03 05:29:27;;;;;;;7.95;4.43;;;;;;;;;;4957158;28;20117;-74
2023/02/03 05:32:13;;;;;;;6.60;4.10;;;;;;;;;;4956716;28;20467;-74
2023/02/03 05:34:59;;;;;;;6.63;4.20;;;;;;;;;;4956274;29;20027;-75
2023/02/03 05:37:44;;;;;;;7.95;4.40;;;;;;;;;;4956671;28;20031;-74
2023/02/03 05:43:34;;;;;;;6.63;4.40;;;;;;;;;;4957229;28;20321;-74
2023/02/03 05:46:20;;;;;;;9.45;4.53;;;;;;;;;;4955837;29;20023;-74
2023/02/03 05:49:06;;;;;;;7.35;4.18;;;;;;;;;;4957202;28;20027;-75
2023/02/03 05:51:52;;;;;;;8.88;4.80;;;;;;;;;;4956746;28;20024;-74
2023/02/03 05:54:37;;;;;;;11.43;4.88;;;;;;;;;;4957273;28;20054;-75
2023/02/03 05:57:23;;;;;;;10.88;5.28;;;;;;;;;;4955957;29;20027;-75
2023/02/03 06:00:09;;;;;;;9.80;5.30;;;;;;;;;;4956135;28;20058;-75
2023/02/03 06:02:55;;;;;;;8.63;5.07;;;;;;;;;;4956393;28;20119;-75
2023/02/03 06:05:43;;;;;;;9.88;5.00;;;;;;;;;;4957008;28;20364;-75
2023/02/03 06:08:28;;;;;;;12.07;4.47;;;;;;;;;;4956657;28;20110;-75
2023/02/03 06:11:14;;;;;;;7.70;4.50;;;;;;;;;;4954892;29;20031;-73
2023/02/03 06:13:59;;;;;;;8.63;4.40;;;;;;;;;;4956835;28;20099;-74
2023/02/03 06:16:45;;;;;;;8.55;4.50;;;;;;;;;;4957371;28;20027;-75
2023/02/03 06:19:31;;;;;;;7.82;4.47;;;;;;;;;;4959366;28;20035;-74
2023/02/03 06:22:16;;;;;;;9.80;4.90;;;;;;;;;;4959489;29;20078;-74
2023/02/03 06:25:02;;;;;;;11.45;5.28;;;;;;;;;;4960417;29;20380;-73
2023/02/03 06:27:47;;;;;;;6.60;4.53;;;;;;;;;;4961531;28;20034;-76
2023/02/03 06:30:33;;;;;;;8.85;4.90;;;;;;;;;;4960478;29;20065;-75
2023/02/03 06:33:19;;;;;;;9.13;4.97;;;;;;;;;;4961488;28;20038;-73
2023/02/03 06:36:04;;;;;;;9.82;5.22;;;;;;;;;;4960478;28;20031;-74
2023/02/03 06:38:50;;;;;;;9.85;5.22;;;;;;;;;;4959667;28;20015;-74
2023/02/03 06:41:36;;;;;;;8.43;4.60;;;;;;;;;;4960635;28;20034;-74
2023/02/03 06:44:21;;;;;;;7.50;4.72;;;;;;;;;;4959785;28;20025;-76
2023/02/03 06:47:07;;;;;;;8.23;5.03;;;;;;;;;;4960301;29;20023;-74
2023/02/03 06:49:53;;;;;;;11.18;4.85;;;;;;;;;;4960170;29;20454;-75
2023/02/03 06:52:38;;;;;;;7.63;4.93;;;;;;;;;;4959951;28;20030;-77
2023/02/03 06:55:24;;;;;;;8.57;5.15;;;;;;;;;;4962042;28;20114;-74
2023/02/03 06:58:09;;;;;;;10.75;5.18;;;;;;;;;;4959834;29;20027;-74
2023/02/03 07:00:55;;;;;;;8.18;4.93;;;;;;;;;;4959904;28;20065;-73
2023/02/03 07:03:41;;;;;;;8.55;4.85;;;;;;;;;;4959780;29;20037;-74
2023/02/03 07:06:29;;;;;;;8.48;4.90;;;;;;;;;;4961769;29;20023;-75
2023/02/03 07:09:15;;;;;;;9.77;5.47;;;;;;;;;;4967854;28;20035;-74
2023/02/03 07:12:00;;;;;;;13.88;6.40;;;;;;;;;;4967260;28;20019;-74
2023/02/03 07:14:46;;;;;;;8.60;5.13;;;;;;;;;;4967071;29;20429;-74
2023/02/03 07:17:32;;;;;;;8.93;5.03;;;;;;;;;;4961060;28;20404;-74
2023/02/03 07:20:17;;;;;;;8.95;5.55;;;;;;;;;;4958549;29;20026;-75
2023/02/03 07:23:03;;;;;;;9.43;5.15;;;;;;;;;;4958877;28;20376;-75
2023/02/03 07:25:48;;;;;;;7.85;4.93;;;;;;;;;;4959656;28;20398;-74
2023/02/03 07:28:34;;;;;;;8.63;5.40;;;;;;;;;;4958592;28;20098;-74
2023/02/03 07:31:20;;;;;;;10.05;5.00;;;;;;;;;;4959798;28;20020;-74
2023/02/03 07:34:06;;;;;;;8.75;5.30;;;;;;;;;;4959463;28;20047;-75
2023/02/03 07:36:51;;;;;;;7.57;5.03;;;;;;;;;;4959062;29;20034;-75
2023/02/03 07:39:37;;;;;;;7.82;5.18;;;;;;;;;;4958548;29;20031;-75
2023/02/03 07:42:22;;;;;;;8.07;5.03;;;;;;;;;;4959582;28;20040;-74
2023/02/03 07:45:09;;;;;;;9.70;5.63;;;;;;;;;;4958085;29;20098;-75
2023/02/03 07:47:54;;;;;;;10.20;5.22;;;;;;;;;;4959286;28;20118;-75
2023/02/03 07:50:40;;;;;;;10.55;5.50;;;;;;;;;;4959250;28;20019;-75
2023/02/03 07:53:25;;;;;;;12.02;5.65;;;;;;;;;;4958448;29;20043;-75
2023/02/03 07:56:11;;;;;;;8.77;5.85;;;;;;;;;;4957278;29;20073;-76
2023/02/03 07:58:57;;;;;;;8.20;5.68;;;;;;;;;;4958325;29;20020;-74
2023/02/03 08:01:43;;;;;;;9.23;5.78;;;;;;;;;;4958457;29;20109;-75
2023/02/03 08:04:29;;;;;;;9.23;5.72;;;;;;;;;;4959729;29;20031;-75
2023/02/03 08:07:14;;;;;;;9.52;5.70;;;;;;;;;;4958297;28;20179;-74
2023/02/03 08:10:00;;;;;;;10.63;5.43;;;;;;;;;;4957753;29;20341;-74
2023/02/03 08:12:46;;;;;;;13.07;5.63;;;;;;;;;;4958413;28;20121;-75
2023/02/03 08:15:32;;;;;;;9.23;5.80;;;;;;;;;;4958126;28;20102;-74
2023/02/03 08:18:18;;;;;;;9.68;5.45;;;;;;;;;;4958347;28;20027;-75
2023/02/03 08:21:04;;;;;;;10.43;5.30;;;;;;;;;;4957319;29;20055;-75
2023/02/03 08:23:49;;;;;;;8.15;5.32;;;;;;;;;;4958117;28;20062;-76
2023/02/03 08:26:35;;;;;;;10.45;5.90;;;;;;;;;;4956763;29;20112;-75
2023/02/03 08:29:21;;;;;;;10.88;6.15;;;;;;;;;;4958462;28;20023;-74
2023/02/03 08:32:10;;;;;;;10.30;5.85;;;;;;;;;;4957684;29;20070;-75
2023/02/03 08:34:55;;;;;;;11.73;6.10;;;;;;;;;;4958337;28;20058;-75
2023/02/03 08:37:41;;;;;;;11.35;5.95;;;;;;;;;;4957857;28;20023;-75
2023/02/03 08:40:27;;;;;;;12.63;5.53;;;;;;;;;;4956813;28;20039;-75
2023/02/03 08:43:12;;;;;;;8.80;6.00;;;;;;;;;;4958855;29;20357;-74
2023/02/03 08:46:01;;;;;;;9.48;5.57;;;;;;;;;;4963973;28;20023;-76
2023/02/03 08:48:46;;;;;;;9.52;5.88;;;;;;;;;;4958175;28;20029;-75
2023/02/03 08:51:32;;;;;;;10.02;5.70;;;;;;;;;;4956683;28;20015;-75
2023/02/03 08:54:18;;;;;;;11.98;6.72;;;;;;;;;;4957241;29;20038;-75
2023/02/03 08:57:04;;;;;;;9.02;5.75;;;;;;;;;;4957556;28;20019;-75
2023/02/03 08:59:50;;;;;;;11.63;6.20;;;;;;;;;;4956902;29;20042;-75
2023/02/03 09:02:45;;;;;;;9.00;5.70;;;;;;;;;;5136946;27;20410;-75
2023/02/03 09:05:30;;;;;;;11.35;6.13;;;;;;;;;;5124390;28;20104;-75
2023/02/03 09:08:16;;;;;;;12.30;5.82;;;;;;;;;;5133354;28;20435;-74
2023/02/03 09:11:02;;;;;;;8.95;5.82;;;;;;;;;;5132607;27;20512;-74
2023/02/03 09:13:48;;;;;;;10.25;5.38;;;;;;;;;;5116665;28;20024;-74
2023/02/03 09:16:33;;;;;;;10.23;5.90;;;;;;;;;;5118159;28;20087;-75
2023/02/03 09:19:19;;;;;;;13.38;7.03;;;;;;;;;;5117849;28;20023;-74
2023/02/03 09:22:04;;;;;;;10.52;5.60;;;;;;;;;;5132785;27;20363;-75
2023/02/03 09:24:50;;;;;;;9.88;5.50;;;;;;;;;;5117551;28;20016;-74
2023/02/03 09:27:36;;;;;;;9.85;5.50;;;;;;;;;;5117051;28;20090;-74
2023/02/03 09:30:21;;;;;;;7.38;4.90;;;;;;;;;;5132001;28;20090;-74
2023/02/03 09:33:07;;;;;;;8.70;5.65;;;;;;;;;;5117462;28;20012;-74
2023/02/03 09:35:53;;;;;;;9.18;5.65;;;;;;;;;;5138791;28;20011;-75
2023/02/03 09:38:38;;;;;;;9.23;5.32;;;;;;;;;;5132074;28;20007;-74
2023/02/03 09:41:30;;;;;;;10.95;5.78;;;;;;;;;;5131740;27;20447;-74
2023/02/03 09:44:27;;;;;;;11.30;5.70;;;;;;;;;;5133052;28;20084;-74
2023/02/03 09:47:14;;;;;;;11.48;5.65;;;;;;;;;;5131195;28;20400;-74
2023/02/03 09:50:01;;;;;;;9.98;5.78;;;;;;;;;;5132036;28;20436;-75
2023/02/03 09:52:48;;;;;;;10.45;6.43;;;;;;;;;;5131271;27;20024;-75
2023/02/03 09:55:41;;;;;;;15.07;8.82;;;;;;;;;;5117103;28;20432;-74
2023/02/03 09:58:31;;;;;;;10.98;6.68;;;;;;;;;;5132199;28;20385;-75
2023/02/03 10:01:18;;;;;;;9.00;5.45;;;;;;;;;;5130938;27;20043;-73
2023/02/03 10:04:17;;;;;;;12.40;6.00;;;;;;;;;;5131491;28;20115;-73
2023/02/03 10:07:18;;;;;;;13.10;6.45;;;;;;;;;;5131459;28;20024;-74
2023/02/03 10:10:18;;;;;;;10.65;6.35;;;;;;;;;;5131348;28;20510;-74
2023/02/03 10:13:22;;;;;;;10.13;6.05;;;;;;;;;;5123371;28;20464;-75
2023/02/03 10:16:26;;;;;;;11.30;6.25;;;;;;;;;;5118530;28;20094;-74
2023/02/03 10:19:15;;;;;;;11.35;5.97;;;;;;;;;;5102275;28;20084;-74
2023/02/03 10:22:02;;;;;;;9.23;6.05;;;;;;;;;;5117286;28;20028;-74
2023/02/03 10:24:51;;;;;;;9.68;6.28;;;;;;;;;;5102327;28;20416;-74
2023/02/03 10:27:37;;;;;;;9.90;5.32;;;;;;;;;;5117517;28;20051;-75
2023/02/03 10:30:24;;;;;;;9.43;6.20;;;;;;;;;;5116918;28;20016;-76
2023/02/03 10:33:11;;;;;;;13.52;6.70;;;;;;;;;;5101758;28;20020;-75
2023/02/03 10:36:08;;;;;;;10.63;6.40;;;;;;;;;;5117138;28;20414;-74
2023/02/03 10:39:06;;;;;;;8.88;6.03;;;;;;;;;;5117450;28;20163;-73
2023/02/03 10:41:52;;;;;;;10.20;6.47;;;;;;;;;;5116982;28;20362;-75
2023/02/03 10:44:39;;;;;;;11.07;6.25;;;;;;;;;;5117372;28;20486;-74
2023/02/03 10:47:38;;;;;;;9.93;5.63;;;;;;;;;;5116966;28;20076;-74
2023/02/03 10:50:34;;;;;;;10.13;6.40;;;;;;;;;;5116719;28;20024;-75
2023/02/03 10:53:31;;;;;;;10.52;5.95;;;;;;;;;;5117358;28;20011;-74
2023/02/03 10:56:18;;;;;;;11.23;6.20;;;;;;;;;;5102600;28;20098;-74
2023/02/03 10:59:05;;;;;;;12.98;5.53;;;;;;;;;;5117142;28;20186;-74
2023/02/03 11:01:51;;;;;;;9.32;5.80;;;;;;;;;;5116502;28;20134;-74
2023/02/03 11:04:36;;;;;;;9.70;5.50;;;;;;;;;;5116172;28;20026;-74
2023/02/03 11:07:24;;;;;;;9.77;6.00;;;;;;;;;;5116587;28;20077;-73
2023/02/03 11:10:27;;;;;;;9.07;5.97;;;;;;;;;;5101387;28;20015;-74
2023/02/03 11:13:16;;;;;;;9.45;5.65;;;;;;;;;;5116763;28;20022;-74
2023/02/03 11:16:03;;;;;;;8.00;4.95;;;;;;;;;;5116723;28;20095;-73
2023/02/03 11:19:10;;;;;;;11.05;7.28;;;;;;;;;;5117016;28;20049;-74
2023/02/03 11:21:55;;;;;;;6.60;4.18;;;;;;;;;;5113433;28;20046;-74
2023/02/03 11:24:41;;;;;;;11.18;3.83;;;;;;;;;;5100532;28;20023;-74
2023/02/03 11:27:29;;;;;;;8.15;3.75;;;;;;;;;;5101296;28;20364;-74
2023/02/03 11:30:17;;;;;;;7.70;3.60;;;;;;;;;;5115277;28;20062;-75
2023/02/03 11:33:14;;;;;;;5.32;3.28;;;;;;;;;;5116292;28;20019;-73
2023/02/03 11:36:01;;;;;;;6.57;3.30;;;;;;;;;;5116577;28;20051;-74
2023/02/03 11:38:46;;;;;;;4.60;3.30;;;;;;;;;;5116103;28;20026;-75
2023/02/03 11:41:35;;;;;;;4.97;3.30;;;;;;;;;;5100146;28;20020;-74
2023/02/03 11:44:28;;;;;;;5.32;3.60;;;;;;;;;;5101257;28;20019;-75
2023/02/03 11:47:15;;;;;;;4.95;3.38;;;;;;;;;;5116054;28;20019;-74
2023/02/03 11:50:13;;;;;;;6.15;3.30;;;;;;;;;;5100661;28;20459;-75
2023/02/03 11:53:13;;;;;;;7.85;3.72;;;;;;;;;;5100500;28;20088;-74
2023/02/03 11:56:05;;;;;;;6.00;3.38;;;;;;;;;;5100792;28;20312;-75
2023/02/03 11:59:00;;;;;;;5.80;4.10;;;;;;;;;;5115761;28;20077;-74
2023/02/03 12:02:00;;;;;;;5.63;3.55;;;;;;;;;;5100258;28;20052;-75
2023/02/03 12:05:09;;;;;;;6.18;3.65;;;;;;;;;;5115619;28;20451;-74
2023/02/03 12:08:04;;;;;;;6.15;3.83;;;;;;;;;;5100766;28;20031;-74
2023/02/03 12:11:04;;;;;;;6.43;3.53;;;;;;;;;;5115371;28;20466;-74
2023/02/03 12:14:03;;;;;;;6.97;3.60;;;;;;;;;;5101272;28;20480;-74
2023/02/03 12:17:11;;;;;;;6.00;3.85;;;;;;;;;;5115653;28;20020;-74
2023/02/03 12:20:02;;;;;;;8.23;3.90;;;;;;;;;;5100284;28;20051;-74
2023/02/03 12:23:06;;;;;;;7.20;3.55;;;;;;;;;;5114635;28;20019;-75
2023/02/03 12:25:55;;;;;;;5.22;3.47;;;;;;;;;;5114867;28;20329;-74
2023/02/03 12:28:49;;;;;;;8.05;3.33;;;;;;;;;;5099815;28;20020;-74
2023/02/03 12:31:47;;;;;;;6.88;3.25;;;;;;;;;;5099968;28;20019;-74
2023/02/03 12:34:42;;;;;;;3.78;2.88;;;;;;;;;;5100096;28;20030;-74
2023/02/03 12:37:38;;;;;;;5.05;3.40;;;;;;;;;;5115220;28;20019;-75
2023/02/03 12:40:23;;;;;;;4.70;3.38;;;;;;;;;;5114973;28;20032;-73
2023/02/03 12:43:22;;;;;;;6.53;3.60;;;;;;;;;;5114678;28;20008;-74
2023/02/03 12:46:14;;;;;;;5.22;3.30;;;;;;;;;;5099882;28;20067;-75
2023/02/03 12:49:04;;;;;;;6.30;3.25;;;;;;;;;;5100584;28;20024;-74
2023/02/03 12:52:07;;;;;;;6.50;3.40;;;;;;;;;;5100485;28;20352;-74
2023/02/03 12:55:11;;;;;;;6.93;3.50;;;;;;;;;;5114531;28;20012;-75
2023/02/03 12:57:59;;;;;;;7.45;4.93;;;;;;;;;;5114272;28;20041;-74
2023/02/03 13:00:47;;;;;;;7.88;5.40;;;;;;;;;;5114365;28;20091;-76
2023/02/03 13:04:11;;;;;;;4.68;3.42;;;;;;;;;;5099180;28;20080;-74
2023/02/03 13:07:03;;;;;;;6.15;3.60;;;;;;;;;;5033158;28;20026;-74
2023/02/03 13:09:48;;;;;;;6.05;3.60;;;;;;;;;;5018499;28;20103;-75
2023/02/03 13:12:40;;;;;;;6.38;3.80;;;;;;;;;;5107092;28;20043;-75
2023/02/03 13:15:29;;;;;;;8.82;3.35;;;;;;;;;;5115241;28;20024;-75
2023/02/03 13:18:27;;;;;;;4.45;3.15;;;;;;;;;;5100644;28;20038;-75
2023/02/03 13:21:12;;;;;;;7.35;3.45;;;;;;;;;;5099402;28;20080;-75
2023/02/03 13:23:58;;;;;;;4.68;3.13;;;;;;;;;;5115066;28;20088;-74
2023/02/03 13:26:47;;;;;;;4.20;3.00;;;;;;;;;;5100518;28;20428;-75
2023/02/03 13:29:41;;;;;;;5.13;3.25;;;;;;;;;;5127231;28;20016;-73
2023/02/03 13:32:45;;;;;;;9.45;4.13;;;;;;;;;;5113415;28;20026;-74
2023/02/03 13:35:49;;;;;;;9.18;5.60;;;;;;;;;;5121111;28;20053;-75
2023/02/03 13:38:47;;;;;;;8.20;4.15;;;;;;;;;;5099156;28;20036;-75
2023/02/03 13:41:43;;;;;;;8.30;4.00;;;;;;;;;;5114153;28;20020;-75
2023/02/03 13:44:31;;;;;;;5.70;4.00;;;;;;;;;;5099686;28;20011;-74
2023/02/03 13:47:18;;;;;;;10.90;4.45;;;;;;;;;;5098984;28;20023;-75
2023/02/03 13:50:14;;;;;;;6.90;3.92;;;;;;;;;;5102913;28;20061;-75
2023/02/03 13:53:02;;;;;;;6.65;4.25;;;;;;;;;;5117811;28;20023;-75
2023/02/03 13:55:55;;;;;;;7.72;3.85;;;;;;;;;;5103209;28;20148;-75
2023/02/03 13:58:41;;;;;;;9.10;4.60;;;;;;;;;;5117861;28;20102;-75
2023/02/03 14:01:29;;;;;;;6.63;4.13;;;;;;;;;;5097011;28;20119;-75
2023/02/03 14:04:20;;;;;;;6.53;4.00;;;;;;;;;;5096825;28;20115;-75
2023/02/03 14:07:25;;;;;;;5.68;3.65;;;;;;;;;;5097045;28;20050;-75
2023/02/03 14:10:11;;;;;;;6.22;2.80;;;;;;;;;;5097153;28;20027;-73
2023/02/03 14:12:58;;;;;;;5.68;3.30;;;;;;;;;;5097243;28;20103;-74
2023/02/03 14:15:45;;;;;;;7.47;3.38;;;;;;;;;;5096367;28;20035;-74
2023/02/03 14:18:43;;;;;;;4.82;3.15;;;;;;;;;;5095813;28;20019;-74
2023/02/03 14:21:37;;;;;;;5.80;3.60;;;;;;;;;;5097027;28;20020;-74
2023/02/03 14:24:24;;;;;;;6.40;3.67;;;;;;;;;;5097106;28;20012;-75
2023/02/03 14:27:17;;;;;;;8.13;3.80;;;;;;;;;;5096645;28;20089;-75
2023/02/03 14:30:10;;;;;;;7.70;3.80;;;;;;;;;;5096025;28;20017;-74
2023/02/03 14:32:57;;;;;;;5.88;3.78;;;;;;;;;;5096178;28;20102;-75
2023/02/03 14:35:43;;;;;;;5.05;3.80;;;;;;;;;;5096715;28;20043;-74
2023/02/03 14:38:31;;;;;;;4.13;3.38;;;;;;;;;;5096655;28;20099;-74
2023/02/03 14:41:20;;;;;;;4.53;3.22;;;;;;;;;;5096861;28;20444;-75
2023/02/03 14:44:13;;;;;;;8.60;3.40;;;;;;;;;;5096870;28;20035;-75
2023/02/03 14:47:11;;;;;;;4.95;3.83;;;;;;;;;;5096449;28;20460;-74
2023/02/03 14:50:05;;;;;;;8.15;4.65;;;;;;;;;;5096878;28;20019;-74
2023/02/03 14:53:13;;;;;;;5.88;4.20;;;;;;;;;;5096837;28;20020;-74
2023/02/03 14:56:18;;;;;;;6.32;4.30;;;;;;;;;;5096312;28;20031;-75
2023/02/03 14:59:08;;;;;;;6.65;4.50;;;;;;;;;;5096229;28;20389;-74
2023/02/03 15:02:14;;;;;;;9.10;4.97;;;;;;;;;;5110183;28;20059;-74
2023/02/03 15:05:14;;;;;;;6.50;4.65;;;;;;;;;;5117365;28;20027;-74
2023/02/03 15:08:02;;;;;;;8.43;4.65;;;;;;;;;;5102281;28;20015;-73
2023/02/03 15:10:47;;;;;;;5.20;4.25;;;;;;;;;;5116486;28;20051;-74
2023/02/03 15:13:33;;;;;;;8.30;4.68;;;;;;;;;;5101350;28;20016;-74
2023/02/03 15:16:20;;;;;;;11.60;4.88;;;;;;;;;;5116318;28;20031;-74
2023/02/03 15:19:14;;;;;;;6.95;4.45;;;;;;;;;;5101640;28;20443;-74
2023/02/03 15:22:00;;;;;;;6.55;4.28;;;;;;;;;;5117397;28;20102;-74
2023/02/03 15:24:46;;;;;;;6.80;4.30;;;;;;;;;;5116400;28;20034;-73
2023/02/03 15:27:32;;;;;;;7.63;4.55;;;;;;;;;;5116235;28;20020;-74
2023/02/03 15:30:22;;;;;;;7.60;4.55;;;;;;;;;;5101548;28;20455;-74
2023/02/03 15:33:12;;;;;;;8.07;4.90;;;;;;;;;;5100675;28;20028;-74
2023/02/03 15:36:02;;;;;;;10.23;5.28;;;;;;;;;;5116369;28;20019;-74
2023/02/03 15:38:51;;;;;;;8.60;5.00;;;;;;;;;;5115827;28;20052;-74
2023/02/03 15:41:38;;;;;;;8.00;4.60;;;;;;;;;;5115566;28;20057;-74
2023/02/03 15:44:34;;;;;;;7.72;4.50;;;;;;;;;;5115632;28;20404;-74
2023/02/03 15:47:39;;;;;;;8.35;5.10;;;;;;;;;;5100784;28;20062;-74
2023/02/03 15:50:51;;;;;;;8.68;4.70;;;;;;;;;;5101050;28;20088;-74
2023/02/03 15:54:12;;;;;;;8.23;4.90;;;;;;;;;;5115979;28;20016;-74
2023/02/03 15:57:04;;;;;;;11.32;5.00;;;;;;;;;;5034080;28;20017;-73
2023/02/03 15:59:57;;;;;;;7.85;5.15;;;;;;;;;;5115862;28;20019;-75
2023/02/03 16:02:44;;;;;;;8.23;4.90;;;;;;;;;;5101361;28;20043;-74
2023/02/03 16:05:31;;;;;;;7.82;4.90;;;;;;;;;;5115620;28;20415;-73
2023/02/03 16:08:28;;;;;;;6.97;4.82;;;;;;;;;;5115197;28;20444;-75
2023/02/03 16:11:19;;;;;;;10.00;5.20;;;;;;;;;;5114942;28;20360;-75
2023/02/03 16:14:29;;;;;;;8.77;5.13;;;;;;;;;;5115197;28;20028;-74
2023/02/03 16:17:26;;;;;;;7.88;5.28;;;;;;;;;;5101172;28;20034;-75
2023/02/03 16:20:12;;;;;;;8.38;5.57;;;;;;;;;;5099632;28;20042;-73
2023/02/03 16:23:00;;;;;;;10.48;6.43;;;;;;;;;;5115270;28;20032;-75
2023/02/03 16:26:02;;;;;;;14.13;6.20;;;;;;;;;;5100699;28;20336;-74
2023/02/03 16:50:55;;;;;;;11.13;6.97;;;;;;;;;;5115812;28;20011;-74
2023/02/03 16:53:42;;;;;;;10.50;5.93;;;;;;;;;;5114925;28;20016;-74
2023/02/03 16:56:28;;;;;;;11.43;6.57;;;;;;;;;;5115701;28;20455;-74
2023/02/03 16:59:15;;;;;;;11.60;5.97;;;;;;;;;;5100307;28;20435;-74
2023/02/03 17:02:00;;;;;;;10.68;5.60;;;;;;;;;;5093697;28;20040;-75
2023/02/03 17:04:46;;;;;;;8.55;5.45;;;;;;;;;;5094525;28;20031;-74
2023/02/03 17:07:31;;;;;;;9.65;5.20;;;;;;;;;;5094437;28;20502;-76
2023/02/03 17:10:17;;;;;;;11.00;5.45;;;;;;;;;;5094748;28;20352;-74
2023/02/03 17:13:03;;;;;;;10.15;5.50;;;;;;;;;;5094441;28;20020;-74
2023/02/03 17:15:53;;;;;;;9.73;5.60;;;;;;;;;;5092839;28;20448;-75
2023/02/03 17:18:39;;;;;;;8.10;5.32;;;;;;;;;;5094407;28;20028;-74